Time;durP1;ratioP1;P1;durP2;ratioP2;P2;SDS_P1;SDS_P2;PMS_P1;PMS_P2;Temp;Humidity;BMP_temperature;BMP_pressure;BME280_temperature;BME280_humidity;BME280_pressure;Samples;Min_cycle;Max_cycle;Signal;HPM_P1;HPM_P2
2021/11/25 00:02:02;;;;;;;55.20;33.48;;;;;;;-1.46;100.00;102089.41;1724313;83;21028;-81
2021/11/25 00:04:30;;;;;;;56.73;34.18;;;;;;;-1.47;100.00;102093.22;1724363;82;21409;-81
2021/11/25 00:06:58;;;;;;;50.45;31.75;;;;;;;-1.54;100.00;102097.51;1723974;83;21092;-82
2021/11/25 00:09:26;;;;;;;52.58;32.45;;;;;;;-1.62;100.00;102092.83;1679431;83;21111;-82
2021/11/25 00:11:54;;;;;;;54.05;31.42;;;;;;;-1.69;100.00;102091.97;1724180;83;21933;-81
2021/11/25 00:14:21;;;;;;;52.03;31.20;;;;;;;-1.71;100.00;102092.83;1724306;83;21055;-81
2021/11/25 00:16:48;;;;;;;45.45;29.87;;;;;;;-1.72;100.00;102084.30;1724401;83;22037;-81
2021/11/25 00:19:16;;;;;;;48.15;30.65;;;;;;;-1.75;100.00;102082.59;1724326;83;22107;-81
2021/11/25 00:21:44;;;;;;;45.38;30.20;;;;;;;-1.72;100.00;102083.45;1702430;83;21166;-83
2021/11/25 00:24:11;;;;;;;47.88;31.20;;;;;;;-1.73;100.00;102077.52;1724326;82;21047;-86
2021/11/25 00:26:39;;;;;;;52.85;30.27;;;;;;;-1.72;100.00;102073.24;1702556;83;21025;-85
2021/11/25 00:29:07;;;;;;;48.60;28.42;;;;;;;-1.71;100.00;102078.78;1724110;83;21063;-81
2021/11/25 00:31:35;;;;;;;45.65;27.05;;;;;;;-1.72;100.00;102071.52;1724576;82;20980;-82
2021/11/25 00:34:03;;;;;;;42.95;28.27;;;;;;;-1.72;100.00;102068.13;1724329;83;21140;-82
2021/11/25 00:36:30;;;;;;;42.67;26.77;;;;;;;-1.73;100.00;102069.85;1702616;83;21147;-82
2021/11/25 00:38:58;;;;;;;43.33;27.87;;;;;;;-1.74;100.00;102069.42;1724274;82;21519;-81
2021/11/25 00:41:25;;;;;;;39.85;26.15;;;;;;;-1.75;100.00;102066.44;1724560;82;21009;-81
2021/11/25 00:43:53;;;;;;;43.60;28.85;;;;;;;-1.76;100.00;102064.29;1724307;83;21052;-82
2021/11/25 00:46:20;;;;;;;42.83;25.60;;;;;;;-1.75;100.00;102060.05;1704258;83;21159;-80
2021/11/25 00:48:49;;;;;;;40.08;26.55;;;;;;;-1.76;100.00;102058.34;1724155;83;21044;-81
2021/11/25 00:51:17;;;;;;;44.48;28.40;;;;;;;-1.79;100.00;102055.38;1724410;83;21044;-81
2021/11/25 00:53:45;;;;;;;44.33;27.98;;;;;;;-1.78;100.00;102053.66;1702398;83;21036;-81
2021/11/25 00:56:12;;;;;;;43.33;26.12;;;;;;;-1.82;100.00;102046.42;1724578;82;21027;-80
2021/11/25 00:58:40;;;;;;;41.35;26.48;;;;;;;-1.86;100.00;102042.19;1702270;83;21052;-80
2021/11/25 01:01:07;;;;;;;45.98;28.15;;;;;;;-1.87;100.00;102049.41;1724161;83;21055;-82
2021/11/25 01:03:34;;;;;;;40.33;26.15;;;;;;;-1.91;100.00;102050.25;1724234;82;21004;-81
2021/11/25 01:06:03;;;;;;;44.53;27.40;;;;;;;-1.98;100.00;102050.70;1724155;83;21033;-80
2021/11/25 01:08:31;;;;;;;43.92;25.97;;;;;;;-2.05;100.00;102047.72;1699980;83;21546;-80
2021/11/25 01:10:58;;;;;;;45.73;26.80;;;;;;;-2.09;100.00;102045.59;1727607;83;21136;-80
2021/11/25 01:13:27;;;;;;;51.85;28.00;;;;;;;-2.11;100.00;102047.28;1711136;83;21113;-80
2021/11/25 01:15:55;;;;;;;49.70;28.83;;;;;;;-2.13;100.00;102049.41;1698095;83;21571;-81
2021/11/25 01:18:26;;;;;;;46.23;26.90;;;;;;;-2.20;100.00;102041.33;1708073;83;21037;-84
2021/11/25 01:20:54;;;;;;;40.55;24.67;;;;;;;-2.26;100.00;102045.55;1728891;82;21038;-81
2021/11/25 01:23:26;;;;;;;47.05;26.75;;;;;;;-2.31;100.00;102047.26;1708839;83;21126;-81
2021/11/25 01:25:57;;;;;;;44.10;26.48;;;;;;;-2.34;100.00;102037.03;1694948;84;21018;-81
2021/11/25 01:28:28;;;;;;;47.83;27.27;;;;;;;-2.40;100.00;102043.41;1680071;84;21082;-82
2021/11/25 01:30:58;;;;;;;55.65;29.48;;;;;;;-2.44;100.00;102045.52;1680402;83;21460;-81
2021/11/25 01:33:26;;;;;;;;;;;;;;;-2.50;100.00;102046.38;1721313;83;21597;-81
2021/11/25 01:35:54;;;;;;;44.48;26.33;;;;;;;-2.57;100.00;102050.60;1716735;83;21154;-81
2021/11/25 01:38:23;;;;;;;44.75;26.05;;;;;;;-2.60;100.00;102051.85;1678135;84;21965;-83
2021/11/25 01:40:53;;;;;;;42.67;25.97;;;;;;;-2.61;100.00;102050.18;1678363;83;21050;-84
2021/11/25 01:43:25;;;;;;;47.35;25.27;;;;;;;-2.60;100.00;102060.78;1698376;84;21039;-81
2021/11/25 01:45:55;;;;;;;37.67;22.70;;;;;;;-2.58;100.00;102057.82;1677716;84;21109;-81
2021/11/25 01:48:24;;;;;;;38.67;24.07;;;;;;;-2.53;100.00;102060.39;1698685;83;21781;-81
2021/11/25 01:50:53;;;;;;;38.15;24.80;;;;;;;-2.51;100.00;102062.52;1698287;84;21871;-81
2021/11/25 01:53:21;;;;;;;45.30;24.18;;;;;;;-2.50;100.00;102069.34;1698336;83;21540;-83
2021/11/25 01:55:49;;;;;;;42.75;25.25;;;;;;;-2.48;100.00;102066.78;1678324;84;21071;-82
2021/11/25 01:58:16;;;;;;;40.92;24.27;;;;;;;-2.47;100.00;102063.38;1698371;83;21525;-82
2021/11/25 02:00:54;;;;;;;44.08;25.62;;;;;;;-2.46;100.00;102048.51;1698417;83;21993;-81
2021/11/25 02:03:23;;;;;;;40.28;24.72;;;;;;;-2.42;100.00;102058.73;1705544;83;21587;-82
2021/11/25 02:05:52;;;;;;;40.40;25.27;;;;;;;-2.39;100.00;102058.71;1687419;84;21069;-81
2021/11/25 02:08:19;;;;;;;40.90;25.35;;;;;;;-2.38;100.00;102060.42;1716091;83;21148;-82
2021/11/25 02:10:51;;;;;;;40.43;24.23;;;;;;;-2.35;100.00;102063.39;1715969;82;21484;-82
2021/11/25 02:13:19;;;;;;;42.17;24.60;;;;;;;-2.32;100.00;102059.59;1708531;83;21873;-80
2021/11/25 02:15:48;;;;;;;41.60;25.10;;;;;;;-2.28;100.00;102065.11;1677496;83;21106;-81
2021/11/25 02:18:20;;;;;;;36.73;23.75;;;;;;;-2.28;100.00;102062.99;1712421;83;21571;-86
2021/11/25 02:20:53;;;;;;;36.77;23.80;;;;;;;-2.28;100.00;102054.91;1658076;84;21535;-82
2021/11/25 02:23:22;;;;;;;43.40;25.17;;;;;;;-2.28;100.00;102061.28;1697984;83;21059;-81
2021/11/25 02:25:50;;;;;;;38.15;24.15;;;;;;;-2.28;100.00;102061.28;1698614;84;21201;-81
2021/11/25 02:28:24;;;;;;;41.28;24.82;;;;;;;-2.28;100.00;102055.34;1698475;84;20940;-82
2021/11/25 02:30:53;;;;;;;37.40;23.32;;;;;;;-2.28;100.00;102066.38;1678346;83;21098;-81
2021/11/25 02:33:20;;;;;;;38.58;24.87;;;;;;;-2.28;100.00;102059.17;1698889;84;21043;-84
2021/11/25 02:35:49;;;;;;;41.95;24.60;;;;;;;-2.28;100.00;102052.34;1702299;84;21070;-81
2021/11/25 02:38:17;;;;;;;43.73;25.02;;;;;;;-2.28;100.00;102051.07;1698747;84;21200;-81
2021/11/25 02:40:53;;;;;;;39.85;25.08;;;;;;;-2.28;100.00;102054.91;1698597;83;21044;-82
2021/11/25 02:43:25;;;;;;;38.17;23.70;;;;;;;-2.33;100.00;102050.66;1698637;84;21011;-82
2021/11/25 02:46:09;;;;;;;40.20;24.25;;;;;;;-2.37;100.00;102047.26;1697612;84;21525;-81
2021/11/25 02:48:50;;;;;;;37.53;23.38;;;;;;;-2.36;100.00;102055.31;1702021;83;21063;-81
2021/11/25 02:51:23;;;;;;;47.33;26.30;;;;;;;-2.39;100.00;102054.89;1709449;83;21232;-80
2021/11/25 02:53:53;;;;;;;39.45;23.32;;;;;;;-2.41;100.00;102050.63;1738189;81;21634;-80
2021/11/25 02:56:24;;;;;;;42.00;24.18;;;;;;;-2.47;100.00;102051.47;1688829;83;21062;-81
2021/11/25 02:58:54;;;;;;;46.37;26.10;;;;;;;-2.54;100.00;102046.80;1697446;84;22027;-81
2021/11/25 03:01:30;;;;;;;46.25;27.60;;;;;;;-2.59;100.00;102042.09;1698046;83;21600;-81
2021/11/25 03:04:01;;;;;;;45.88;26.60;;;;;;;-2.68;100.00;102039.50;1724621;81;21503;-81
2021/11/25 03:06:29;;;;;;;47.03;27.95;;;;;;;-2.80;100.00;102039.48;1724438;83;21033;-81
2021/11/25 03:08:59;;;;;;;57.58;32.50;;;;;;;-2.95;100.00;102038.58;1712275;83;21552;-81
2021/11/25 03:11:30;;;;;;;47.35;27.85;;;;;;;-3.04;100.00;102047.46;1681286;84;21066;-82
2021/11/25 03:14:04;;;;;;;43.90;26.93;;;;;;;-3.12;100.00;102044.86;1704245;84;21062;-81
2021/11/25 03:16:33;;;;;;;47.80;26.42;;;;;;;-3.22;100.00;102043.97;1704094;83;21157;-81
2021/11/25 03:19:02;;;;;;;39.58;24.63;;;;;;;-3.26;100.00;102040.99;1657667;84;21071;-81
2021/11/25 03:21:31;;;;;;;43.13;24.80;;;;;;;-3.32;100.00;102038.38;1704174;84;21082;-81
2021/11/25 03:23:58;;;;;;;39.05;24.43;;;;;;;-3.37;100.00;102042.61;1704152;83;21018;-80
2021/11/25 03:26:27;;;;;;;41.25;26.35;;;;;;;-3.38;100.00;102040.50;1704076;83;21480;-81
2021/11/25 03:28:59;;;;;;;48.60;27.70;;;;;;;-3.37;100.00;102044.76;1704036;84;21224;-82
2021/11/25 03:31:32;;;;;;;44.30;25.72;;;;;;;-3.37;100.00;102040.06;1658856;84;21014;-81
2021/11/25 03:34:03;;;;;;;45.00;27.00;;;;;;;-3.38;100.00;102044.73;1681599;84;21057;-81
2021/11/25 03:36:32;;;;;;;45.75;27.27;;;;;;;-3.44;100.00;102048.08;1681663;84;21050;-82
2021/11/25 03:39:01;;;;;;;48.95;28.62;;;;;;;-3.49;100.00;102058.27;1704010;84;21532;-81
2021/11/25 03:41:30;;;;;;;61.58;28.65;;;;;;;-3.55;100.00;102053.11;1703937;84;22207;-83
2021/11/25 03:43:58;;;;;;;46.55;27.82;;;;;;;-3.58;100.00;102048.42;1704097;83;21018;-81
2021/11/25 03:46:25;;;;;;;45.45;24.07;;;;;;;-3.61;100.00;102052.23;1704319;84;21010;-81
2021/11/25 03:48:53;;;;;;;50.23;28.27;;;;;;;-3.63;100.00;102047.11;1704076;83;21022;-82
2021/11/25 03:51:21;;;;;;;42.73;25.82;;;;;;;-3.60;100.00;102043.73;1704365;84;21080;-80
2021/11/25 03:53:49;;;;;;;40.50;24.35;;;;;;;-3.60;100.00;102038.23;1704452;84;22321;-80
2021/11/25 03:56:18;;;;;;;41.70;23.02;;;;;;;-3.59;100.00;102040.34;1704084;83;21520;-82
2021/11/25 03:58:46;;;;;;;47.85;25.40;;;;;;;-3.59;100.00;102037.80;1704310;84;21047;-81
2021/11/25 04:01:16;;;;;;;38.10;23.90;;;;;;;-3.58;100.00;102039.51;1704447;83;21007;-81
2021/11/25 04:03:45;;;;;;;42.27;25.30;;;;;;;-3.59;100.00;102045.03;1727976;82;20999;-82
2021/11/25 04:06:13;;;;;;;47.05;26.68;;;;;;;-3.60;100.00;102036.96;1719279;82;21160;-83
2021/11/25 04:08:40;;;;;;;45.05;26.30;;;;;;;-3.65;100.00;102038.63;1705439;83;21018;-81
2021/11/25 04:11:07;;;;;;;46.33;27.05;;;;;;;-3.75;100.00;102037.70;1703630;83;21098;-80
2021/11/25 04:13:36;;;;;;;49.10;26.82;;;;;;;-3.85;100.00;102041.88;1703785;83;21114;-82
2021/11/25 04:16:04;;;;;;;49.35;28.23;;;;;;;-3.93;100.00;102042.23;1730842;82;21042;-81
2021/11/25 04:18:31;;;;;;;53.68;29.95;;;;;;;-4.00;100.00;102044.30;1677924;82;21090;-82
2021/11/25 04:20:58;;;;;;;47.17;27.67;;;;;;;-4.05;100.00;102039.17;1673786;85;21064;-82
2021/11/25 04:23:26;;;;;;;50.88;29.27;;;;;;;-4.15;100.00;102036.09;1698490;83;21592;-82
2021/11/25 04:25:53;;;;;;;43.78;26.42;;;;;;;-4.23;100.00;102032.23;1711466;83;21055;-81
2021/11/25 04:28:20;;;;;;;134.60;31.85;;;;;;;-4.29;100.00;102042.36;1711569;83;21138;-83
2021/11/25 04:30:53;;;;;;;77.85;29.18;;;;;;;-4.02;100.00;102039.61;1711569;83;21133;-82
2021/11/25 04:36:02;;;;;;;52.23;29.35;;;;;;;-3.08;100.00;102039.35;1681438;83;21059;-81
2021/11/25 04:38:29;;;;;;;59.55;29.10;;;;;;;-3.08;100.00;102040.22;1711865;83;21048;-80
2021/11/25 04:41:00;;;;;;;52.23;30.40;;;;;;;-3.24;100.00;102044.38;1711610;83;20964;-81
2021/11/25 04:43:29;;;;;;;;;;;;;;;-3.44;100.00;102045.53;1714251;83;21821;-82
2021/11/25 04:45:57;;;;;;;54.67;30.45;;;;;;;-3.61;100.00;102046.71;1707600;82;20130;-84
2021/11/25 04:48:26;;;;;;;58.35;29.32;;;;;;;-3.73;100.00;102048.75;1681993;84;21081;-81
2021/11/25 04:50:55;;;;;;;60.70;31.17;;;;;;;-3.75;100.00;102052.13;1704691;83;21611;-85
2021/11/25 04:53:23;;;;;;;51.45;30.75;;;;;;;-3.44;100.00;102045.97;1681306;84;21053;-81
2021/11/25 04:55:51;;;;;;;56.02;28.67;;;;;;;-3.35;100.00;102047.30;1703615;82;21545;-82
2021/11/25 04:58:18;;;;;;;42.45;25.68;;;;;;;-3.46;100.00;102051.47;1704518;82;21023;-82
2021/11/25 05:00:46;;;;;;;48.23;27.22;;;;;;;-3.44;100.00;102053.61;1703513;82;21019;-82
2021/11/25 05:03:14;;;;;;;44.27;26.48;;;;;;;-3.45;100.00;102052.77;1706539;83;21855;-82
2021/11/25 05:05:42;;;;;;;48.40;26.97;;;;;;;-3.61;100.00;102060.72;1728609;82;21101;-82
2021/11/25 05:08:12;;;;;;;45.92;26.40;;;;;;;-3.78;100.00;102064.83;1708187;82;21055;-82
2021/11/25 05:10:40;;;;;;;48.40;26.50;;;;;;;-3.97;100.00;102071.05;1712525;82;21038;-82
2021/11/25 05:13:08;;;;;;;51.50;27.07;;;;;;;-4.09;100.00;102076.02;1728050;81;21125;-83
2021/11/25 05:15:35;;;;;;;48.05;26.70;;;;;;;-4.20;100.00;102078.47;1694970;84;21059;-84
2021/11/25 05:18:03;;;;;;;49.83;27.22;;;;;;;-4.27;100.00;102073.72;1681458;83;21022;-82
2021/11/25 05:20:31;;;;;;;45.17;25.92;;;;;;;-4.33;100.00;102078.36;1672346;84;21921;-82
2021/11/25 05:22:58;;;;;;;49.10;27.62;;;;;;;-4.39;100.00;102085.90;1707945;84;21055;-82
2021/11/25 05:25:27;;;;;;;49.40;25.95;;;;;;;-4.44;100.00;102091.36;1707902;83;21073;-83
2021/11/25 05:27:54;;;;;;;47.53;25.45;;;;;;;-4.49;100.00;102091.31;1704044;83;21059;-82
2021/11/25 05:30:21;;;;;;;43.52;23.95;;;;;;;-4.48;100.00;102095.97;1674233;83;21571;-82
2021/11/25 05:32:51;;;;;;;36.73;21.57;;;;;;;-4.44;100.00;102098.56;1665025;85;22252;-82
2021/11/25 05:35:18;;;;;;;39.25;24.60;;;;;;;-4.35;100.00;102098.23;1666282;85;21172;-81
2021/11/25 05:37:45;;;;;;;47.23;24.45;;;;;;;-4.26;100.00;102099.60;1686931;83;21055;-81
2021/11/25 05:40:15;;;;;;;43.00;24.25;;;;;;;-4.18;100.00;102097.98;1690096;83;21115;-84
2021/11/25 05:42:43;;;;;;;42.03;23.32;;;;;;;-4.04;100.00;102099.80;1688342;84;21086;-83
2021/11/25 05:45:16;;;;;;;39.95;23.05;;;;;;;-3.94;100.00;102096.52;1695471;83;21061;-84
2021/11/25 05:47:46;;;;;;;38.53;22.37;;;;;;;-3.85;100.00;102096.60;1639575;84;21631;-83
2021/11/25 05:50:24;;;;;;;38.30;22.25;;;;;;;-3.75;100.00;102096.69;1691377;83;20987;-83
2021/11/25 05:52:56;;;;;;;36.20;20.75;;;;;;;-3.69;100.00;102087.41;1667153;84;20991;-81
2021/11/25 05:55:29;;;;;;;;;;;;;;;-3.60;100.00;102087.02;1688457;83;21075;-82
2021/11/25 05:57:59;;;;;;;37.30;22.27;;;;;;;-3.52;100.00;102091.75;1692221;83;21893;-81
2021/11/25 06:00:28;;;;;;;32.95;20.25;;;;;;;-3.41;100.00;102088.88;1698576;83;21028;-82
2021/11/25 06:02:55;;;;;;;36.42;22.02;;;;;;;-3.31;100.00;102089.77;1705195;84;21520;-81
2021/11/25 06:05:23;;;;;;;35.60;21.42;;;;;;;-3.23;100.00;102095.77;1704018;83;21093;-83
2021/11/25 06:07:51;;;;;;;39.03;21.75;;;;;;;-3.12;100.00;102097.54;1658400;83;21038;-82
2021/11/25 06:10:22;;;;;;;30.57;20.12;;;;;;;-3.03;100.00;102100.98;1724850;82;21134;-83
2021/11/25 06:12:52;;;;;;;37.10;21.33;;;;;;;-2.92;100.00;102105.30;1705081;83;28295;-83
2021/11/25 06:15:20;;;;;;;31.10;20.52;;;;;;;-2.86;100.00;102104.91;1704631;84;21007;-81
2021/11/25 06:17:50;;;;;;;34.88;20.57;;;;;;;-2.77;100.00;102104.09;1704279;83;21571;-82
2021/11/25 06:20:20;;;;;;;32.83;20.90;;;;;;;-2.66;100.00;102113.05;1681812;84;21102;-81
2021/11/25 06:22:52;;;;;;;31.77;20.48;;;;;;;-2.58;100.00;102101.19;1704208;83;21145;-82
2021/11/25 06:25:22;;;;;;;37.78;22.35;;;;;;;-2.51;100.00;102109.72;1703956;84;21061;-82
2021/11/25 06:27:51;;;;;;;32.38;21.87;;;;;;;-2.45;100.00;102108.45;1704210;83;21070;-86
2021/11/25 06:30:19;;;;;;;36.80;23.07;;;;;;;-2.40;100.00;102114.41;1681330;84;21066;-84
2021/11/25 06:32:50;;;;;;;35.38;22.95;;;;;;;-2.33;100.00;102111.91;1681682;84;21038;-83
2021/11/25 06:35:21;;;;;;;47.05;24.47;;;;;;;-2.29;100.00;102113.20;1724986;82;21134;-82
2021/11/25 06:37:50;;;;;;;;;;;;;;;-2.25;100.00;102109.78;1708172;83;21043;-81
2021/11/25 06:40:28;;;;;;;38.42;23.45;;;;;;;-2.17;100.00;102111.50;1681704;84;20147;-82
2021/11/25 06:42:57;;;;;;;39.05;24.92;;;;;;;-2.09;100.00;102111.09;1701142;83;20995;-82
2021/11/25 06:45:25;;;;;;;37.05;23.25;;;;;;;-2.01;100.00;102105.58;1704067;83;21027;-81
2021/11/25 06:47:53;;;;;;;38.17;24.32;;;;;;;-1.94;100.00;102104.73;1704107;83;21163;-82
2021/11/25 06:50:23;;;;;;;41.35;26.35;;;;;;;-1.85;100.00;102110.28;1681391;84;21054;-82
2021/11/25 06:52:51;;;;;;;40.85;26.68;;;;;;;-1.73;100.00;102107.29;1724327;82;21595;-82
2021/11/25 06:55:18;;;;;;;43.10;29.12;;;;;;;-1.63;100.00;102112.39;1713703;83;21089;-82
2021/11/25 06:57:51;;;;;;;39.30;25.82;;;;;;;-1.54;100.00;102109.41;1713896;83;21070;-81
2021/11/25 07:00:25;;;;;;;42.95;26.97;;;;;;;-1.43;100.00;102107.27;1708251;83;21176;-82
2021/11/25 07:02:54;;;;;;;43.08;25.90;;;;;;;-1.31;100.00;102110.23;1683791;83;21031;-82
2021/11/25 07:05:27;;;;;;;37.55;25.23;;;;;;;-1.20;100.00;102110.66;1774596;80;21038;-81
2021/11/25 07:07:57;;;;;;;37.63;24.90;;;;;;;-1.12;100.00;102103.38;1743413;80;20982;-82
2021/11/25 07:10:25;;;;;;;39.80;25.20;;;;;;;-1.02;100.00;102105.51;1776876;80;21041;-82
2021/11/25 07:12:54;;;;;;;41.68;25.52;;;;;;;-0.91;100.00;102104.60;1745322;80;21090;-81
2021/11/25 07:15:25;;;;;;;37.73;25.05;;;;;;;-0.81;100.00;102107.56;1743335;80;21539;-82
2021/11/25 07:17:55;;;;;;;39.18;24.65;;;;;;;-0.71;100.00;102105.81;1766384;80;21065;-88
2021/11/25 07:20:23;;;;;;;37.35;24.18;;;;;;;-0.62;100.00;102101.94;1766149;80;21647;-83
2021/11/25 07:22:50;;;;;;;36.85;23.50;;;;;;;-0.54;100.00;102099.36;1766302;80;21077;-83
2021/11/25 07:25:18;;;;;;;38.78;24.12;;;;;;;-0.48;100.00;102102.72;1743107;81;21069;-82
2021/11/25 07:27:47;;;;;;;39.30;23.57;;;;;;;-0.40;100.00;102107.81;1743254;81;21551;-82
2021/11/25 07:30:18;;;;;;;38.13;24.15;;;;;;;-0.32;100.00;102107.75;1743488;81;21022;-82
2021/11/25 07:32:47;;;;;;;37.15;23.65;;;;;;;-0.23;100.00;102110.70;1766092;80;21548;-83
2021/11/25 07:35:21;;;;;;;33.92;23.52;;;;;;;-0.12;100.00;102105.52;1766579;80;21062;-82
2021/11/25 07:37:52;;;;;;;38.23;22.65;;;;;;;-0.02;100.00;102113.12;1764994;81;21865;-83
2021/11/25 07:40:22;;;;;;;34.23;22.98;;;;;;;0.07;100.00;102110.94;1766225;81;21053;-83
2021/11/25 07:42:48;;;;;;;31.82;20.97;;;;;;;0.17;100.00;102109.16;1766304;81;21057;-83
2021/11/25 07:45:16;;;;;;;31.42;20.60;;;;;;;0.26;100.00;102106.94;1766216;81;21520;-82
2021/11/25 07:47:44;;;;;;;34.08;21.87;;;;;;;0.36;100.00;102106.45;1766024;80;21018;-82
2021/11/25 07:50:15;;;;;;;30.25;19.82;;;;;;;0.47;100.00;102107.19;1766156;80;21138;-82
2021/11/25 07:52:43;;;;;;;32.78;21.50;;;;;;;0.60;100.00;102104.92;1757185;80;21087;-82
2021/11/25 07:55:13;;;;;;;34.40;21.60;;;;;;;0.74;100.00;102105.24;1756970;81;20990;-81
2021/11/25 07:57:43;;;;;;;31.45;21.05;;;;;;;0.87;100.00;102102.13;1748027;80;21046;-82
2021/11/25 08:00:13;;;;;;;36.45;20.50;;;;;;;0.97;100.00;102096.45;1753683;80;21541;-82
2021/11/25 08:02:42;;;;;;;29.07;20.20;;;;;;;1.03;100.00;102104.07;1743749;81;21626;-85
2021/11/25 08:05:10;;;;;;;28.70;20.25;;;;;;;1.09;100.00;102102.70;1735030;81;21049;-82
2021/11/25 08:07:40;;;;;;;40.75;20.82;;;;;;;1.14;100.00;102103.52;1766842;80;21592;-81
2021/11/25 08:10:12;;;;;;;36.73;19.57;;;;;;;1.16;100.00;102106.90;1761162;81;21160;-81
2021/11/25 08:12:41;;;;;;;32.45;20.43;;;;;;;1.21;100.00;102105.14;1760848;81;21030;-82
2021/11/25 08:15:10;;;;;;;29.95;18.90;;;;;;;1.23;100.00;102103.42;1733681;81;21031;-82
2021/11/25 08:17:39;;;;;;;30.32;19.65;;;;;;;1.31;100.00;102101.19;1756066;81;21070;-81
2021/11/25 08:20:07;;;;;;;33.33;20.90;;;;;;;1.36;100.00;102096.84;1733421;81;21528;-81
2021/11/25 08:22:35;;;;;;;32.53;19.85;;;;;;;1.43;100.00;102098.45;1755881;81;21544;-82
2021/11/25 08:25:05;;;;;;;36.05;20.52;;;;;;;1.49;100.00;102093.23;1733198;81;21070;-80
2021/11/25 08:27:32;;;;;;;31.23;19.77;;;;;;;1.57;100.00;102094.42;1752979;80;21158;-85
2021/11/25 08:29:59;;;;;;;28.02;19.85;;;;;;;1.60;100.00;102093.11;1755890;80;21464;-85
2021/11/25 08:32:36;;;;;;;35.10;20.57;;;;;;;1.66;100.00;102092.16;1756164;81;21007;-84
2021/11/25 08:35:05;;;;;;;30.85;20.95;;;;;;;1.71;100.00;102092.51;1733351;81;21078;-80
2021/11/25 08:37:35;;;;;;;30.70;19.32;;;;;;;1.79;100.00;102089.84;1756268;81;21106;-80
2021/11/25 08:40:02;;;;;;;33.65;19.70;;;;;;;1.83;100.00;102088.91;1733518;81;21064;-81
2021/11/25 08:42:30;;;;;;;29.12;19.37;;;;;;;1.88;100.00;102087.11;1755964;81;22332;-82
2021/11/25 08:44:57;;;;;;;28.67;19.37;;;;;;;1.92;100.00;102072.94;1756178;81;21003;-80
2021/11/25 08:47:25;;;;;;;30.08;20.00;;;;;;;1.97;100.00;102075.00;1746901;81;21033;-83
2021/11/25 08:49:52;;;;;;;35.45;21.55;;;;;;;2.01;100.00;102071.07;1668933;84;21071;-82
2021/11/25 08:52:19;;;;;;;29.18;20.48;;;;;;;2.04;100.00;102065.89;1729796;82;21581;-82
2021/11/25 08:54:50;;;;;;;34.65;20.75;;;;;;;2.10;100.00;102059.81;1693874;83;21056;-81
2021/11/25 08:57:17;;;;;;;29.90;19.80;;;;;;;2.15;100.00;102059.73;1664545;85;21096;-85
2021/11/25 08:59:45;;;;;;;31.35;19.90;;;;;;;2.18;100.00;102054.11;1685194;83;21064;-84
2021/11/25 09:02:12;;;;;;;31.15;20.23;;;;;;;2.23;100.00;102050.59;1674088;84;21042;-83
2021/11/25 09:04:39;;;;;;;35.55;22.80;;;;;;;2.37;100.00;102047.34;1673767;84;21789;-81
2021/11/25 09:07:07;;;;;;;31.93;20.00;;;;;;;2.37;100.00;102047.34;1717800;83;21579;-81
2021/11/25 09:09:34;;;;;;;28.25;19.32;;;;;;;2.45;100.00;102054.48;1705455;83;21034;-82
2021/11/25 09:12:01;;;;;;;32.70;20.77;;;;;;;2.49;100.00;102050.13;1729045;82;20967;-82
2021/11/25 09:14:28;;;;;;;32.63;21.00;;;;;;;2.51;100.00;102046.68;1707972;82;21073;-80
2021/11/25 09:16:57;;;;;;;29.60;20.45;;;;;;;2.53;100.00;102042.34;1711108;83;21118;-81
2021/11/25 09:19:24;;;;;;;28.62;19.15;;;;;;;2.56;100.00;102046.60;1711262;83;21164;-80
2021/11/25 09:21:56;;;;;;;26.73;17.62;;;;;;;2.60;100.00;102040.95;1714205;83;21559;-80
2021/11/25 09:24:23;;;;;;;30.37;20.05;;;;;;;2.66;100.00;102041.67;1705571;83;21053;-81
2021/11/25 09:26:52;;;;;;;27.50;18.67;;;;;;;2.71;100.00;102040.30;1707126;82;20963;-80
2021/11/25 09:29:20;;;;;;;24.45;17.82;;;;;;;2.79;100.00;102041.00;1732241;82;21143;-81
2021/11/25 09:31:48;;;;;;;48.42;20.70;;;;;;;2.87;100.00;102035.71;1746674;82;21547;-80
2021/11/25 09:34:15;;;;;;;31.52;18.62;;;;;;;3.01;100.00;102025.11;1698455;82;21093;-80
2021/11/25 09:36:43;;;;;;;35.13;19.45;;;;;;;3.25;100.00;102025.47;1715340;83;21002;-80
2021/11/25 09:39:12;;;;;;;60.80;21.70;;;;;;;3.42;100.00;102025.95;1714849;83;21002;-80
2021/11/25 09:41:39;;;;;;;33.98;18.62;;;;;;;3.68;100.00;102020.64;1715627;82;21206;-80
2021/11/25 09:44:08;;;;;;;36.48;19.70;;;;;;;3.68;100.00;102020.64;1714119;82;21061;-80
2021/11/25 09:46:37;;;;;;;45.55;20.25;;;;;;;3.85;100.00;102018.11;1709711;83;21117;-79
2021/11/25 09:49:06;;;;;;;33.23;19.35;;;;;;;3.85;100.00;102018.11;1706321;83;21109;-81
2021/11/25 09:51:34;;;;;;;27.85;18.92;;;;;;;3.95;100.00;102016.55;1724178;82;21129;-80
2021/11/25 09:54:01;;;;;;;34.38;19.90;;;;;;;4.04;100.00;102021.08;1727012;82;22422;-81
2021/11/25 09:56:29;;;;;;;41.65;20.52;;;;;;;4.08;100.00;102020.13;1710119;82;21030;-80
2021/11/25 09:58:58;;;;;;;32.63;19.57;;;;;;;4.12;100.00;102013.98;1735339;82;21030;-80
2021/11/25 10:01:25;;;;;;;37.10;20.27;;;;;;;4.14;100.00;102013.94;1704198;82;22138;-79
2021/11/25 10:03:54;;;;;;;37.30;19.50;;;;;;;4.17;100.00;102011.30;1684239;83;21089;-79
2021/11/25 10:06:36;;;;;;;31.07;18.92;;;;;;;4.18;100.00;102008.67;1710634;83;21152;-80
2021/11/25 10:09:04;;;;;;;33.48;19.42;;;;;;;4.24;100.00;101998.22;1697369;84;21536;-80
2021/11/25 10:11:39;;;;;;;26.25;18.32;;;;;;;4.28;100.00;101996.83;1691015;83;21026;-80
2021/11/25 10:14:15;;;;;;;32.42;21.00;;;;;;;4.31;100.00;101998.05;1701476;82;20993;-80
2021/11/25 10:16:50;;;;;;;48.92;20.65;;;;;;;4.32;100.00;101988.97;1661456;85;21370;-82
2021/11/25 10:19:22;;;;;;;45.98;21.23;;;;;;;4.35;100.00;101993.20;1680961;85;21158;-80
2021/11/25 10:22:00;;;;;;;42.83;22.20;;;;;;;4.37;100.00;101981.11;1716840;82;21543;-80
2021/11/25 10:24:37;;;;;;;39.65;21.33;;;;;;;4.46;100.00;101989.03;1727063;82;21050;-82
2021/11/25 10:27:21;;;;;;;36.00;20.85;;;;;;;4.47;100.00;101989.02;1703562;82;21054;-80
2021/11/25 10:30:09;;;;;;;27.62;19.30;;;;;;;4.46;100.00;101986.45;1778270;80;21049;-80
2021/11/25 10:32:39;;;;;;;35.65;21.68;;;;;;;4.45;100.00;101984.33;1778047;80;21065;-80
2021/11/25 10:35:29;;;;;;;41.65;22.17;;;;;;;4.48;100.00;101980.81;1761196;80;22375;-81
2021/11/25 10:40:34;;;;;;;37.98;20.90;;;;;;;4.51;100.00;101978.16;1722349;81;21053;-80
2021/11/25 10:43:23;;;;;;;32.10;20.52;;;;;;;4.50;100.00;101975.18;1676853;82;21095;-80
2021/11/25 10:45:54;;;;;;;26.80;19.35;;;;;;;4.50;100.00;101970.02;1700829;82;21165;-80
2021/11/25 10:48:36;;;;;;;29.18;18.80;;;;;;;4.48;100.00;101962.76;1698518;83;21614;-80
2021/11/25 10:51:27;;;;;;;32.63;19.37;;;;;;;4.46;100.00;101965.39;1735031;82;21125;-81
2021/11/25 10:54:17;;;;;;;32.10;20.15;;;;;;;4.47;100.00;101959.77;1733794;80;20994;-80
2021/11/25 10:56:52;;;;;;;30.52;20.23;;;;;;;4.47;100.00;101957.20;1740581;81;20951;-80
2021/11/25 10:59:25;;;;;;;34.75;20.32;;;;;;;4.43;100.00;101955.14;1767092;80;21120;-81
2021/11/25 11:02:28;;;;;;;38.95;21.65;;;;;;;4.39;100.00;101945.36;1756978;80;21034;-81
2021/11/25 11:05:01;;;;;;;29.82;20.90;;;;;;;4.40;100.00;101938.48;1761780;80;21030;-81
2021/11/25 11:07:35;;;;;;;31.10;19.70;;;;;;;4.39;100.00;101939.38;1786325;79;21025;-83
2021/11/25 11:10:20;;;;;;;31.73;20.92;;;;;;;4.39;100.00;101936.79;1777664;80;21045;-80
2021/11/25 11:13:03;;;;;;;31.60;19.37;;;;;;;4.36;100.00;101935.14;1781997;79;21823;-80
2021/11/25 11:15:32;;;;;;;31.75;19.37;;;;;;;4.32;100.00;101928.37;1781001;80;21010;-81
2021/11/25 11:20:47;;;;;;;29.32;19.10;;;;;;;4.24;100.00;101929.02;1780632;80;21041;-82
2021/11/25 11:23:13;;;;;;;31.12;20.90;;;;;;;4.19;100.00;101927.86;1753201;80;21045;-80
2021/11/25 11:25:42;;;;;;;27.25;19.82;;;;;;;4.16;100.00;101930.54;1750613;82;21203;-81